Horace A — 9HA3885 — position and weather

sailwx.info

Track history (hours):
 
Tides and Currents Weather Stations Pressure Air Temp Water Temp Dewpoint Dewpoint Depression Visibility Wind Speed Wind Dir Waves Ship Positions

Horace A

Last reported at 2017-Nov-18 02:15 UTC. Time now 2017-Nov-18 02:50 UTC.
Position N 40°25' E 029°05'.

Length 222 m; draft 10.2 m.

Type: Cargo ship. MMSI: 256318000.

Date/timePositionNaut miles runAvg speedWind from/ knotsBaromVisibWave heightAir tempDewpointWater temp
2017-Nov-18 02:15N 40°25' E 029°05'0 0.0
2017-Nov-18 01:57N 40°25' E 029°05'0 0.0
2017-Nov-18 01:27N 40°25' E 029°05'0 0.0
2017-Nov-18 00:51N 40°25' E 029°05'0 0.0
2017-Nov-18 00:27N 40°25' E 029°05'0 0.0
2017-Nov-17 23:51N 40°25' E 029°05'0 0.0
2017-Nov-17 23:15N 40°25' E 029°05'0 0.0
2017-Nov-17 22:57N 40°25' E 029°05'0 0.0
2017-Nov-17 22:27N 40°25' E 029°05'0 0.0
2017-Nov-17 21:45N 40°25' E 029°05'0 0.0
2017-Nov-17 21:27N 40°25' E 029°05'0 0.0
2017-Nov-17 20:57N 40°25' E 029°05'0 0.0
2017-Nov-17 20:27N 40°25' E 029°05'0 0.0
2017-Nov-17 19:57N 40°25' E 029°05'0 0.0
2017-Nov-17 19:27N 40°25' E 029°05'0 0.0
2017-Nov-17 18:51N 40°25' E 029°05'0 0.0
2017-Nov-17 18:27N 40°25' E 029°05'0 0.1
2017-Nov-17 17:57N 40°25' E 029°05'0 0.0
2017-Nov-17 17:27N 40°25' E 029°05'0 0.0
2017-Nov-17 16:39N 40°25' E 029°05'0 0.0
2017-Nov-17 16:27N 40°25' E 029°05'0 0.0
2017-Nov-17 15:57N 40°25' E 029°05'0 0.0
2017-Nov-17 15:21N 40°25' E 029°05'0 0.0
2017-Nov-17 14:57N 40°25' E 029°05'0 0.0
2017-Nov-17 14:27N 40°25' E 029°05'0 0.0
2017-Nov-17 13:57N 40°25' E 029°05'0 0.0
2017-Nov-17 13:27N 40°25' E 029°05'0 0.0
2017-Nov-17 12:57N 40°25' E 029°05'0 0.0
2017-Nov-17 12:27N 40°25' E 029°05'0 0.0
2017-Nov-17 11:57N 40°25' E 029°05'0 0.1
2017-Nov-17 11:30N 40°25' E 029°05'1 2.6
2017-Nov-17 10:59N 40°25' E 029°03'16 5.0
2017-Nov-17 07:43N 40°40' E 028°55'411.6
2017-Nov-17 07:24N 40°42' E 028°59'511.3
2017-Nov-17 06:58N 40°43' E 029°05'510.7
2017-Nov-17 06:28N 40°44' E 029°12'510.4
2017-Nov-17 06:00N 40°44' E 029°19'611.5
2017-Nov-17 05:30N 40°45' E 029°26'712.3
2017-Nov-17 04:58N 40°45' E 029°35'4 0.3
2017-Nov-16 15:20N 40°45' E 029°30'412.8
2017-Nov-16 15:00N 40°44' E 029°25'4 8.7
2017-Nov-16 14:30N 40°43' E 029°19'611.3
2017-Nov-16 14:00N 40°44' E 029°12'715.1
2017-Nov-16 13:30N 40°46' E 029°02'815.0
2017-Nov-16 13:00N 40°48' E 028°53'913.7
2017-Nov-16 12:19N 40°52' E 028°41'155 4.1
2017-Nov-14 22:13N 39°48' E 025°36'2014.7
2017-Nov-14 20:50N 39°42' E 025°11'616.1
2017-Nov-14 20:30N 39°42' E 025°04'815.8
2017-Nov-14 20:00N 39°43' E 024°54'816.1
2017-Nov-14 19:31N 39°44' E 024°44'915.9
2017-Nov-14 18:57N 39°45' E 024°32'1015.8
2017-Nov-14 18:19N 39°47' E 024°19'515.6
2017-Nov-14 18:00N 39°47' E 024°13'815.8
2017-Nov-14 17:30N 39°48' E 024°03'  
2017-Nov-08 12:31N 39°39' E 024°01'116.6
2017-Nov-08 12:26N 39°38' E 024°02'716.4
2017-Nov-08 12:00N 39°35' E 024°10'2415.7
2017-Nov-08 10:27N 39°16' E 024°31'9615.4
2017-Nov-08 04:12N 37°41' E 024°30'  
Track history (hours):
 
Tides and Currents Weather Stations Pressure Air Temp Water Temp Dewpoint Dewpoint Depression Visibility Wind Speed Wind Dir Waves Ship Positions

Horace A

Last reported at 2017-Nov-18 02:15 UTC. Time now 2017-Nov-18 02:50 UTC.
Position N 40°25' E 029°05'.

Length 222 m; draft 10.2 m.

Type: Cargo ship. MMSI: 256318000.

Date/timePositionNaut miles runAvg speedWind from/ knotsBaromVisibWave heightAir tempDewpointWater temp
2017-Nov-18 02:15N 40°25' E 029°05'0 0.0
2017-Nov-18 01:57N 40°25' E 029°05'0 0.0
2017-Nov-18 01:27N 40°25' E 029°05'0 0.0
2017-Nov-18 00:51N 40°25' E 029°05'0 0.0
2017-Nov-18 00:27N 40°25' E 029°05'0 0.0
2017-Nov-17 23:51N 40°25' E 029°05'0 0.0
2017-Nov-17 23:15N 40°25' E 029°05'0 0.0
2017-Nov-17 22:57N 40°25' E 029°05'0 0.0
2017-Nov-17 22:27N 40°25' E 029°05'0 0.0
2017-Nov-17 21:45N 40°25' E 029°05'0 0.0
2017-Nov-17 21:27N 40°25' E 029°05'0 0.0
2017-Nov-17 20:57N 40°25' E 029°05'0 0.0
2017-Nov-17 20:27N 40°25' E 029°05'0 0.0
2017-Nov-17 19:57N 40°25' E 029°05'0 0.0
2017-Nov-17 19:27N 40°25' E 029°05'0 0.0
2017-Nov-17 18:51N 40°25' E 029°05'0 0.0
2017-Nov-17 18:27N 40°25' E 029°05'0 0.1
2017-Nov-17 17:57N 40°25' E 029°05'0 0.0
2017-Nov-17 17:27N 40°25' E 029°05'0 0.0
2017-Nov-17 16:39N 40°25' E 029°05'0 0.0
2017-Nov-17 16:27N 40°25' E 029°05'0 0.0
2017-Nov-17 15:57N 40°25' E 029°05'0 0.0
2017-Nov-17 15:21N 40°25' E 029°05'0 0.0
2017-Nov-17 14:57N 40°25' E 029°05'0 0.0
2017-Nov-17 14:27N 40°25' E 029°05'0 0.0
2017-Nov-17 13:57N 40°25' E 029°05'0 0.0
2017-Nov-17 13:27N 40°25' E 029°05'0 0.0
2017-Nov-17 12:57N 40°25' E 029°05'0 0.0
2017-Nov-17 12:27N 40°25' E 029°05'0 0.0
2017-Nov-17 11:57N 40°25' E 029°05'0 0.1
2017-Nov-17 11:30N 40°25' E 029°05'1 2.6
2017-Nov-17 10:59N 40°25' E 029°03'16 5.0
2017-Nov-17 07:43N 40°40' E 028°55'411.6
2017-Nov-17 07:24N 40°42' E 028°59'511.3
2017-Nov-17 06:58N 40°43' E 029°05'510.7
2017-Nov-17 06:28N 40°44' E 029°12'510.4
2017-Nov-17 06:00N 40°44' E 029°19'611.5
2017-Nov-17 05:30N 40°45' E 029°26'712.3
2017-Nov-17 04:58N 40°45' E 029°35'4 0.3
2017-Nov-16 15:20N 40°45' E 029°30'412.8
2017-Nov-16 15:00N 40°44' E 029°25'4 8.7
2017-Nov-16 14:30N 40°43' E 029°19'611.3
2017-Nov-16 14:00N 40°44' E 029°12'715.1
2017-Nov-16 13:30N 40°46' E 029°02'815.0
2017-Nov-16 13:00N 40°48' E 028°53'913.7
2017-Nov-16 12:19N 40°52' E 028°41'155 4.1
2017-Nov-14 22:13N 39°48' E 025°36'2014.7
2017-Nov-14 20:50N 39°42' E 025°11'616.1
2017-Nov-14 20:30N 39°42' E 025°04'815.8
2017-Nov-14 20:00N 39°43' E 024°54'816.1
2017-Nov-14 19:31N 39°44' E 024°44'915.9
2017-Nov-14 18:57N 39°45' E 024°32'1015.8
2017-Nov-14 18:19N 39°47' E 024°19'515.6
2017-Nov-14 18:00N 39°47' E 024°13'815.8
2017-Nov-14 17:30N 39°48' E 024°03'  
2017-Nov-08 12:31N 39°39' E 024°01'116.6
2017-Nov-08 12:26N 39°38' E 024°02'716.4
2017-Nov-08 12:00N 39°35' E 024°10'2415.7
2017-Nov-08 10:27N 39°16' E 024°31'9615.4
2017-Nov-08 04:12N 37°41' E 024°30'  

Dump ship's entire track history